Time;durP1;ratioP1;P1;durP2;ratioP2;P2;SDS_P1;SDS_P2;PMS_P1;PMS_P2;Temp;Humidity;BMP_temperature;BMP_pressure;BME280_temperature;BME280_humidity;BME280_pressure;Samples;Min_cycle;Max_cycle;Signal;HPM_P1;HPM_P2
2023/03/25 00:01:24;;;;;;;5.95;1.25;;;10.60;99.90;;;;;;5002248;28;20619;-85
2023/03/25 00:03:52;;;;;;;2.83;1.23;;;10.60;99.90;;;;;;4991312;28;20038;-93
2023/03/25 00:06:18;;;;;;;2.15;0.95;;;10.60;99.90;;;;;;5044467;22;20392;-88
2023/03/25 00:08:44;;;;;;;1.83;0.90;;;10.60;99.90;;;;;;4967003;28;20546;-80
2023/03/25 00:11:11;;;;;;;2.67;1.13;;;10.60;99.90;;;;;;4951923;28;20042;-79
2023/03/25 00:13:36;;;;;;;7.32;1.52;;;10.60;99.90;;;;;;4964669;28;20093;-80
2023/03/25 00:16:03;;;;;;;5.80;1.02;;;10.60;99.90;;;;;;4947114;28;20023;-80
2023/03/25 00:18:32;;;;;;;7.18;1.10;;;10.60;99.90;;;;;;4949231;28;20022;-80
2023/03/25 00:21:01;;;;;;;7.53;1.00;;;10.70;99.90;;;;;;4953348;28;20668;-78
2023/03/25 00:23:28;;;;;;;2.20;0.93;;;10.70;99.90;;;;;;4949618;28;20025;-79
2023/03/25 00:25:59;;;;;;;5.60;1.00;;;10.70;99.90;;;;;;4951814;28;20023;-79
2023/03/25 00:28:27;;;;;;;4.38;1.10;;;10.70;99.90;;;;;;4948581;28;20062;-79
2023/03/25 00:30:53;;;;;;;5.53;1.45;;;10.70;99.90;;;;;;4963005;28;20038;-81
2023/03/25 00:33:21;;;;;;;5.80;0.90;;;10.70;99.90;;;;;;4963196;28;20090;-78
2023/03/25 00:35:57;;;;;;;5.63;0.90;;;10.70;99.90;;;;;;4960301;28;20715;-79
2023/03/25 00:38:34;;;;;;;3.15;1.00;;;10.60;99.90;;;;;;4959903;28;20035;-82
2023/03/25 00:41:24;;;;;;;4.63;1.10;;;10.70;99.90;;;;;;4972875;28;20014;-95
2023/03/25 00:43:53;;;;;;;65.82;22.60;;;10.70;99.90;;;;;;4962349;28;20022;-86
2023/03/25 00:46:19;;;;;;;5.50;2.08;;;10.70;99.90;;;;;;4948167;28;20058;-86
2023/03/25 00:48:45;;;;;;;5.50;1.17;;;10.70;99.90;;;;;;4954337;28;20070;-85
2023/03/25 00:51:12;;;;;;;10.13;1.60;;;10.80;99.90;;;;;;4948019;28;20022;-82
2023/03/25 00:53:38;;;;;;;7.03;0.77;;;10.80;99.90;;;;;;4959880;28;20216;-82
2023/03/25 00:56:04;;;;;;;5.72;1.13;;;10.80;99.90;;;;;;4960020;28;20141;-81
2023/03/25 00:58:30;;;;;;;4.75;1.13;;;10.70;99.90;;;;;;4959775;28;20122;-80
2023/03/25 01:00:56;;;;;;;2.15;0.70;;;10.80;99.90;;;;;;4957781;28;20026;-81
2023/03/25 01:03:25;;;;;;;4.43;1.05;;;10.80;99.90;;;;;;4958764;28;20031;-94
2023/03/25 01:05:53;;;;;;;8.80;1.17;;;10.80;99.90;;;;;;4956310;28;20019;-84
2023/03/25 01:08:24;;;;;;;5.32;1.20;;;10.70;99.90;;;;;;4962955;28;20042;-84
2023/03/25 01:10:53;;;;;;;9.27;1.52;;;10.70;99.90;;;;;;4983295;28;20509;-87
2023/03/25 01:13:19;;;;;;;7.72;1.52;;;10.80;99.90;;;;;;4954619;28;20052;-84
2023/03/25 01:15:55;;;;;;;5.72;1.20;;;10.80;99.90;;;;;;4971168;28;20027;-91
2023/03/25 01:18:21;;;;;;;4.15;1.30;;;10.80;99.90;;;;;;4966448;28;20031;-91
2023/03/25 01:20:46;;;;;;;9.65;1.38;;;10.80;99.90;;;;;;4952708;28;20475;-85
2023/03/25 01:23:12;;;;;;;7.25;1.85;;;10.80;99.90;;;;;;4966511;28;20038;-94
2023/03/25 01:25:38;;;;;;;8.75;1.40;;;10.90;99.90;;;;;;4972749;28;20066;-83
2023/03/25 01:28:04;;;;;;;9.63;1.75;;;10.90;99.90;;;;;;4976231;28;20345;-85
2023/03/25 01:30:30;;;;;;;8.63;1.45;;;10.80;99.90;;;;;;4969802;28;20033;-92
2023/03/25 01:32:56;;;;;;;8.98;1.48;;;10.80;99.90;;;;;;4951190;28;20039;-86
2023/03/25 01:35:21;;;;;;;8.35;1.17;;;10.80;99.90;;;;;;4953420;28;20038;-84
2023/03/25 01:37:53;;;;;;;5.22;1.00;;;10.90;99.90;;;;;;4947707;28;20623;-80
2023/03/25 01:40:23;;;;;;;4.28;1.08;;;10.90;99.90;;;;;;4981843;28;20125;-79
2023/03/25 01:42:49;;;;;;;5.47;1.10;;;10.90;99.90;;;;;;4961704;28;20620;-80
2023/03/25 01:45:23;;;;;;;10.05;1.30;;;10.90;99.90;;;;;;4950565;28;20027;-82
2023/03/25 01:47:57;;;;;;;9.20;1.45;;;10.80;99.90;;;;;;4948528;28;20090;-81
2023/03/25 01:50:27;;;;;;;15.30;1.80;;;10.80;99.90;;;;;;4948894;28;20026;-82
2023/03/25 01:52:58;;;;;;;5.05;1.33;;;10.80;99.90;;;;;;4949499;28;20022;-87
2023/03/25 01:55:26;;;;;;;4.22;1.25;;;10.80;99.90;;;;;;5046196;23;20041;-95
2023/03/25 01:57:58;;;;;;;8.20;1.15;;;10.90;99.90;;;;;;5026605;22;20343;-83
2023/03/25 02:05:38;;;;;;;5.07;1.33;;;10.70;99.90;;;;;;4983206;28;20156;-86
2023/03/25 02:08:05;;;;;;;9.27;1.40;;;10.80;99.90;;;;;;4991066;28;20195;-90
2023/03/25 02:10:32;;;;;;;6.13;1.38;;;10.80;99.90;;;;;;4983766;28;20026;-85
2023/03/25 02:12:58;;;;;;;6.50;1.35;;;10.80;99.90;;;;;;4993938;28;20021;-96
2023/03/25 02:15:25;;;;;;;12.38;2.08;;;10.80;99.90;;;;;;4981542;28;20097;-96
2023/03/25 02:18:10;;;;;;;7.32;1.15;;;10.80;99.90;;;;;;4983651;28;20035;-96
2023/03/25 02:20:54;;;;;;;5.55;1.77;;;10.80;99.90;;;;;;4968679;28;20030;-94
2023/03/25 02:23:56;;;;;;;2.58;1.10;;;10.80;99.90;;;;;;4982013;28;20026;-92
2023/03/25 02:27:32;;;;;;;7.50;1.27;;;10.70;99.90;;;;;;4967871;28;20049;-87
2023/03/25 02:30:15;;;;;;;4.78;1.05;;;10.80;99.90;;;;;;4962573;28;20782;-95
2023/03/25 02:33:15;;;;;;;7.18;1.58;;;10.70;99.90;;;;;;4958056;28;20027;-96
2023/03/25 02:35:59;;;;;;;5.88;1.55;;;10.70;99.90;;;;;;4971832;28;20057;-96
2023/03/25 02:39:00;;;;;;;7.38;1.40;;;10.70;99.90;;;;;;4979073;28;20027;-96
2023/03/25 02:44:14;;;;;;;5.97;1.20;;;10.70;99.90;;;;;;5001850;26;20043;-84
2023/03/25 02:51:57;;;;;;;3.50;1.00;;;10.60;99.90;;;;;;5869826;22;20061;-83
2023/03/25 02:54:25;;;;;;;4.75;1.70;;;10.60;99.90;;;;;;4980560;28;20045;-81
2023/03/25 02:57:01;;;;;;;4.95;1.25;;;10.50;99.90;;;;;;4973898;28;20093;-95
2023/03/25 03:02:18;;;;;;;3.83;1.00;;;10.50;99.90;;;;;;5170119;23;20298;-96
2023/03/25 03:04:54;;;;;;;6.53;1.17;;;10.50;99.90;;;;;;4978947;28;20038;-94
2023/03/25 03:07:22;;;;;;;1.85;1.33;;;10.50;99.90;;;;;;4984015;28;20050;-93
2023/03/25 03:10:22;;;;;;;5.28;1.30;;;10.50;99.90;;;;;;4982069;28;20038;-96
2023/03/25 03:13:14;;;;;;;5.50;1.10;;;10.50;99.90;;;;;;4914255;29;20040;-93
2023/03/25 03:16:00;;;;;;;3.22;1.60;;;10.50;99.90;;;;;;4898276;29;20028;-96
2023/03/25 03:18:49;;;;;;;3.58;1.20;;;10.50;99.90;;;;;;4889854;29;20035;-94
2023/03/25 03:21:54;;;;;;;6.22;1.45;;;10.40;99.90;;;;;;4917532;29;20954;-91
2023/03/25 03:32:55;;;;;;;4.93;1.60;;;10.30;99.90;;;;;;5018758;22;20065;-84
2023/03/25 03:35:32;;;;;;;3.65;1.10;;;10.30;99.90;;;;;;5004617;28;20048;-95
2023/03/25 03:40:36;;;;;;;4.43;1.23;;;10.30;99.90;;;;;;4993959;28;20038;-85
2023/03/25 03:43:07;;;;;;;3.42;1.05;;;10.20;99.90;;;;;;4977117;28;20026;-93
2023/03/25 03:45:42;;;;;;;6.45;0.95;;;10.30;99.90;;;;;;4978047;28;20165;-96
2023/03/25 03:48:21;;;;;;;2.58;1.10;;;10.30;99.90;;;;;;4986475;28;20035;-84
2023/03/25 03:56:18;;;;;;;3.58;1.17;;;10.30;99.90;;;;;;5083653;22;20020;-96
2023/03/25 04:01:29;;;;;;;3.08;1.00;;;10.30;99.90;;;;;;5606256;22;20053;-96
2023/03/25 04:04:04;;;;;;;5.05;1.67;;;10.30;99.90;;;;;;5270946;23;20133;-95
2023/03/25 04:06:42;;;;;;;5.10;1.55;;;10.30;99.90;;;;;;5256856;22;20042;-96
2023/03/25 04:17:28;;;;;;;4.20;1.40;;;10.10;99.90;;;;;;5198288;22;20257;-85
2023/03/25 04:25:28;;;;;;;5.93;1.30;;;10.00;99.90;;;;;;5294111;22;20042;-94
2023/03/25 04:27:57;;;;;;;3.67;1.08;;;10.00;99.90;;;;;;4989612;28;20027;-96
2023/03/25 04:30:36;;;;;;;7.35;1.60;;;9.90;99.90;;;;;;4972907;28;20039;-95
2023/03/25 04:40:39;;;;;;;10.70;1.88;;;9.60;99.90;;;;;;5035037;28;20041;-94
2023/03/25 04:43:07;;;;;;;4.72;2.00;;;9.60;99.90;;;;;;5174693;22;20020;-86
2023/03/25 04:45:37;;;;;;;3.25;1.17;;;9.60;99.90;;;;;;4998266;28;20037;-96
2023/03/25 04:48:28;;;;;;;2.80;1.85;;;9.60;99.90;;;;;;5018942;28;20030;-93
2023/03/25 04:53:47;;;;;;;7.65;1.52;;;9.60;99.90;;;;;;5286345;22;19964;-91
2023/03/25 04:56:29;;;;;;;5.35;1.45;;;9.50;99.90;;;;;;4986296;28;20187;-95
2023/03/25 04:58:55;;;;;;;7.35;1.52;;;9.50;99.90;;;;;;5002397;28;20033;-83
2023/03/25 05:01:54;;;;;;;7.72;1.55;;;9.50;99.90;;;;;;4987803;28;20034;-94
2023/03/25 05:04:46;;;;;;;11.15;2.17;;;9.60;99.90;;;;;;4992946;28;21016;-96
2023/03/25 05:07:17;;;;;;;6.25;1.48;;;9.60;99.90;;;;;;4985310;28;20041;-85
2023/03/25 05:09:42;;;;;;;7.95;1.77;;;9.60;99.90;;;;;;4993791;28;20037;-81
2023/03/25 05:12:10;;;;;;;5.75;1.20;;;9.50;99.90;;;;;;4973782;28;20579;-83
2023/03/25 05:14:36;;;;;;;1.13;1.02;;;9.60;99.90;;;;;;4975114;28;20535;-82
2023/03/25 05:17:01;;;;;;;4.22;1.35;;;9.60;99.90;;;;;;4987303;28;20096;-82
2023/03/25 05:19:27;;;;;;;10.68;1.70;;;9.60;99.90;;;;;;4982487;28;20041;-96
2023/03/25 05:21:55;;;;;;;0.95;0.95;;;9.60;99.90;;;;;;4958562;28;20031;-83
2023/03/25 05:32:34;;;;;;;2.70;0.77;;;9.70;99.90;;;;;;5019008;28;20465;-94
2023/03/25 05:35:03;;;;;;;2.50;1.13;;;9.70;99.90;;;;;;5009708;28;20025;-91
2023/03/25 05:40:09;;;;;;;3.17;1.30;;;9.80;99.90;;;;;;4995455;28;20272;-95
2023/03/25 05:42:36;;;;;;;5.53;1.20;;;9.80;99.90;;;;;;4994352;28;20034;-94
2023/03/25 05:47:32;;;;;;;4.57;1.20;;;9.80;99.90;;;;;;5019116;28;20089;-84
2023/03/25 05:49:59;;;;;;;4.32;1.35;;;9.70;99.90;;;;;;5004582;28;20048;-85
2023/03/25 05:52:26;;;;;;;8.95;1.17;;;9.60;99.90;;;;;;4998796;28;20017;-83
2023/03/25 05:54:52;;;;;;;10.35;1.40;;;9.60;99.90;;;;;;4998506;28;20442;-82
2023/03/25 05:57:18;;;;;;;10.13;1.33;;;9.60;99.90;;;;;;4996485;28;20030;-83
2023/03/25 05:59:44;;;;;;;6.70;1.40;;;9.60;99.90;;;;;;4999337;28;20065;-82
2023/03/25 06:02:15;;;;;;;7.65;1.38;;;9.60;99.90;;;;;;5013887;28;20213;-82
2023/03/25 06:04:41;;;;;;;10.07;1.70;;;9.60;99.90;;;;;;4997188;28;20034;-81
2023/03/25 06:10:00;;;;;;;3.35;1.20;;;9.70;99.90;;;;;;5019034;28;20044;-95
2023/03/25 06:12:26;;;;;;;5.63;1.10;;;9.70;99.90;;;;;;5029373;28;21126;-85
2023/03/25 06:20:09;;;;;;;6.30;1.10;;;9.70;99.90;;;;;;4857374;26;20564;-80
2023/03/25 06:22:37;;;;;;;10.65;1.42;;;9.70;99.90;;;;;;5003938;28;20014;-84
2023/03/25 06:32:42;;;;;;;16.80;1.92;;;9.70;99.90;;;;;;5005038;28;20052;-89
2023/03/25 06:40:13;;;;;;;4.30;1.50;;;10.00;99.90;;;;;;5014409;22;20059;-83
2023/03/25 06:42:40;;;;;;;5.60;0.90;;;10.00;99.90;;;;;;4971640;28;20491;-88
2023/03/25 06:45:09;;;;;;;6.65;1.52;;;10.00;99.90;;;;;;4976918;28;20051;-83
2023/03/25 06:47:35;;;;;;;7.30;1.60;;;10.10;99.90;;;;;;4981229;28;20064;-86
2023/03/25 06:50:00;;;;;;;6.38;1.60;;;10.20;99.90;;;;;;4975435;28;20141;-89
2023/03/25 06:52:29;;;;;;;7.30;1.50;;;10.20;99.90;;;;;;4981000;28;20015;-84
2023/03/25 06:54:54;;;;;;;8.40;1.45;;;10.30;99.90;;;;;;4972978;28;20022;-90
2023/03/25 06:57:20;;;;;;;2.38;1.10;;;10.30;99.90;;;;;;4978940;28;20038;-94
2023/03/25 06:59:48;;;;;;;10.48;1.58;;;10.30;99.90;;;;;;4979521;28;20454;-95
2023/03/25 07:02:15;;;;;;;5.45;1.30;;;10.30;99.90;;;;;;4983188;28;20730;-86
2023/03/25 07:04:41;;;;;;;8.75;2.58;;;10.40;99.90;;;;;;4977158;28;20058;-85
2023/03/25 07:07:07;;;;;;;9.55;1.70;;;10.50;99.90;;;;;;4974481;28;20030;-89
2023/03/25 07:09:33;;;;;;;7.38;1.60;;;10.50;99.90;;;;;;4974872;28;20047;-96
2023/03/25 07:11:59;;;;;;;4.57;1.40;;;10.40;99.90;;;;;;4977154;28;20018;-85
2023/03/25 07:14:27;;;;;;;7.35;1.30;;;10.40;99.90;;;;;;4979561;28;20014;-87
2023/03/25 07:16:53;;;;;;;5.25;1.42;;;10.40;99.90;;;;;;4981808;28;20033;-94
2023/03/25 07:19:18;;;;;;;9.70;2.17;;;10.30;99.90;;;;;;4977695;28;20053;-90
2023/03/25 07:21:44;;;;;;;5.32;1.15;;;10.50;99.90;;;;;;4991835;28;20057;-89
2023/03/25 07:24:11;;;;;;;10.07;1.60;;;10.40;99.90;;;;;;5202789;23;20237;-91
2023/03/25 07:26:36;;;;;;;8.07;1.58;;;10.60;99.90;;;;;;5017311;28;20052;-87
2023/03/25 07:29:02;;;;;;;12.18;1.30;;;10.50;99.90;;;;;;5001119;28;20116;-90
2023/03/25 07:31:29;;;;;;;8.88;1.60;;;10.50;99.90;;;;;;5005959;28;20026;-86
2023/03/25 07:33:54;;;;;;;3.80;1.02;;;10.60;99.90;;;;;;5005318;28;20033;-91
2023/03/25 07:36:22;;;;;;;7.85;1.10;;;10.60;99.90;;;;;;5007746;28;20027;-89
2023/03/25 07:38:51;;;;;;;6.22;1.20;;;10.70;99.90;;;;;;5007046;28;20026;-90
2023/03/25 07:41:16;;;;;;;8.27;1.23;;;10.80;99.90;;;;;;5004142;28;20021;-87
2023/03/25 07:43:44;;;;;;;8.68;1.33;;;10.80;99.90;;;;;;5006714;28;20055;-94
2023/03/25 07:46:12;;;;;;;7.53;1.80;;;10.90;99.90;;;;;;5000369;28;20033;-87
2023/03/25 07:48:38;;;;;;;8.55;1.55;;;11.20;99.90;;;;;;5005399;28;20022;-84
2023/03/25 07:51:07;;;;;;;7.50;1.48;;;11.20;99.90;;;;;;5006110;28;20025;-87
2023/03/25 07:53:33;;;;;;;10.68;1.65;;;11.20;99.90;;;;;;5005845;28;20026;-94
2023/03/25 07:55:59;;;;;;;9.50;1.77;;;11.20;99.90;;;;;;5026316;28;20059;-92
2023/03/25 07:58:25;;;;;;;8.98;1.50;;;11.30;99.90;;;;;;5009696;28;21470;-84
2023/03/25 08:00:53;;;;;;;5.90;1.38;;;11.30;99.90;;;;;;5011088;28;20030;-88
2023/03/25 08:03:18;;;;;;;11.80;1.38;;;11.30;99.90;;;;;;5008816;28;20032;-94
2023/03/25 08:05:47;;;;;;;10.32;1.77;;;11.30;99.90;;;;;;5006553;28;20096;-87
2023/03/25 08:08:14;;;;;;;10.05;1.42;;;11.40;99.90;;;;;;5006948;28;20116;-88
2023/03/25 08:10:45;;;;;;;13.82;1.33;;;11.40;99.90;;;;;;5137929;22;20222;-85
2023/03/25 08:13:11;;;;;;;8.85;1.33;;;11.40;99.90;;;;;;5002502;28;20076;-94
2023/03/25 08:15:37;;;;;;;10.85;1.95;;;11.50;99.90;;;;;;5014906;23;20038;-92
2023/03/25 08:18:04;;;;;;;10.63;1.95;;;11.50;99.90;;;;;;5010350;28;20026;-85
2023/03/25 08:20:31;;;;;;;7.60;1.92;;;11.40;99.90;;;;;;4999486;28;20101;-93
2023/03/25 08:22:57;;;;;;;16.15;1.95;;;11.50;99.90;;;;;;4993641;28;20022;-88
2023/03/25 08:25:23;;;;;;;10.10;1.45;;;11.50;99.90;;;;;;4971755;28;20114;-94
2023/03/25 08:27:49;;;;;;;9.73;1.70;;;11.70;99.90;;;;;;4967426;28;20325;-87
2023/03/25 08:30:16;;;;;;;9.68;1.90;;;11.60;99.90;;;;;;4975025;28;20283;-92
2023/03/25 08:32:44;;;;;;;11.50;1.95;;;11.60;99.90;;;;;;4975100;28;20022;-84
2023/03/25 08:35:11;;;;;;;10.57;1.92;;;11.50;99.90;;;;;;4977032;28;21436;-89
2023/03/25 08:37:37;;;;;;;14.60;1.55;;;11.40;99.90;;;;;;4967078;28;20498;-91
2023/03/25 08:40:09;;;;;;;11.52;1.70;;;11.30;99.90;;;;;;4967467;28;20094;-85
2023/03/25 08:42:35;;;;;;;10.20;1.55;;;11.30;99.90;;;;;;4968104;28;20452;-95
2023/03/25 08:45:03;;;;;;;12.93;1.85;;;11.20;99.90;;;;;;4971809;28;20683;-91
2023/03/25 08:47:29;;;;;;;15.98;1.45;;;11.30;99.90;;;;;;4984117;28;20061;-89
2023/03/25 08:49:55;;;;;;;11.32;1.48;;;11.30;99.90;;;;;;4965209;28;20030;-83
2023/03/25 08:52:21;;;;;;;10.65;1.42;;;11.30;99.90;;;;;;4967164;28;20272;-94
2023/03/25 08:54:46;;;;;;;14.07;1.98;;;11.40;99.90;;;;;;4985754;28;20038;-88
2023/03/25 08:57:14;;;;;;;52.88;17.00;;;11.40;99.90;;;;;;4970124;28;20569;-84
2023/03/25 08:59:41;;;;;;;3.78;1.33;;;11.30;99.90;;;;;;4964717;28;20038;-88
2023/03/25 09:02:08;;;;;;;19.35;2.13;;;11.50;99.90;;;;;;4970719;28;20029;-84
2023/03/25 09:04:34;;;;;;;7.28;1.67;;;11.70;99.90;;;;;;4968701;28;20034;-90
2023/03/25 09:07:00;;;;;;;8.85;1.42;;;11.80;99.90;;;;;;4971362;28;20026;-86
2023/03/25 09:09:25;;;;;;;10.90;1.85;;;11.90;99.90;;;;;;4969552;28;20068;-86
2023/03/25 09:11:51;;;;;;;10.13;1.27;;;12.00;99.90;;;;;;4985334;28;20045;-90
2023/03/25 09:14:16;;;;;;;7.70;1.65;;;12.20;99.90;;;;;;4972773;28;20483;-92
2023/03/25 09:16:42;;;;;;;12.77;1.60;;;12.10;99.90;;;;;;4972886;28;20049;-92
2023/03/25 09:19:09;;;;;;;10.73;1.77;;;11.80;99.90;;;;;;4975786;28;20041;-90
2023/03/25 09:21:35;;;;;;;6.47;1.85;;;11.90;99.90;;;;;;4974502;28;20122;-89
2023/03/25 09:24:00;;;;;;;5.78;1.55;;;11.70;99.90;;;;;;4985297;28;20030;-85
2023/03/25 09:26:26;;;;;;;10.95;1.63;;;11.60;99.90;;;;;;4973138;28;20038;-85
2023/03/25 09:28:55;;;;;;;14.60;2.25;;;11.50;99.90;;;;;;4974666;28;20035;-88
2023/03/25 09:31:22;;;;;;;203.43;69.65;;;11.50;99.90;;;;;;4975778;28;20029;-91
2023/03/25 09:33:47;;;;;;;12.80;2.13;;;11.60;99.90;;;;;;4974048;28;20597;-90
2023/03/25 09:36:13;;;;;;;9.20;1.63;;;11.50;99.90;;;;;;4972526;28;20019;-90
2023/03/25 09:38:41;;;;;;;10.23;1.90;;;11.50;99.90;;;;;;4969108;28;20431;-88
2023/03/25 09:41:51;;;;;;;6.53;1.23;;;11.50;99.90;;;;;;4969217;28;20023;-87
2023/03/25 09:44:32;;;;;;;8.13;1.23;;;11.50;99.90;;;;;;4952872;28;20030;-89
2023/03/25 09:47:02;;;;;;;9.05;1.88;;;11.40;99.90;;;;;;4937736;28;20042;-86
2023/03/25 09:49:52;;;;;;;4.65;1.08;;;11.40;99.90;;;;;;4966102;28;20110;-85
2023/03/25 09:52:52;;;;;;;6.00;1.05;;;11.70;99.90;;;;;;4956349;28;20555;-88
2023/03/25 09:55:31;;;;;;;8.20;1.65;;;11.90;99.90;;;;;;4953887;28;20550;-92
2023/03/25 09:58:20;;;;;;;9.68;1.88;;;11.90;99.90;;;;;;4971298;28;20050;-87
2023/03/25 10:00:54;;;;;;;16.60;3.67;;;11.80;99.90;;;;;;4962415;28;20041;-83
2023/03/25 10:03:27;;;;;;;10.07;2.15;;;12.10;99.90;;;;;;4955902;28;20458;-86
2023/03/25 10:06:10;;;;;;;9.27;2.00;;;12.40;99.90;;;;;;4951731;28;20417;-83
2023/03/25 10:08:41;;;;;;;8.93;1.67;;;12.60;99.90;;;;;;4951888;28;20038;-86
2023/03/25 10:11:47;;;;;;;11.65;1.75;;;12.30;99.90;;;;;;4953133;28;20143;-90
2023/03/25 10:14:42;;;;;;;11.65;1.50;;;12.20;99.90;;;;;;4946691;28;20031;-85
2023/03/25 10:17:47;;;;;;;10.00;1.50;;;12.20;99.90;;;;;;4952504;28;20035;-87
2023/03/25 10:20:20;;;;;;;9.80;1.73;;;12.30;99.90;;;;;;4947235;28;21017;-81
2023/03/25 10:23:14;;;;;;;12.30;2.03;;;12.30;99.90;;;;;;4967744;28;20302;-87
2023/03/25 10:25:47;;;;;;;16.05;3.90;;;12.40;99.90;;;;;;4949839;28;20057;-89
2023/03/25 10:28:27;;;;;;;4.45;1.45;;;12.30;99.90;;;;;;4963655;28;20038;-85
2023/03/25 10:30:54;;;;;;;12.15;2.80;;;12.10;99.90;;;;;;4952010;28;20106;-89
2023/03/25 10:33:36;;;;;;;14.48;2.05;;;12.30;99.90;;;;;;4968277;28;20043;-87
2023/03/25 10:36:03;;;;;;;8.40;2.67;;;12.30;99.90;;;;;;4953521;28;20022;-87
2023/03/25 10:38:32;;;;;;;5.55;2.00;;;12.20;99.90;;;;;;4964122;28;20176;-90
2023/03/25 10:41:10;;;;;;;11.93;1.70;;;12.30;99.90;;;;;;4970267;28;20028;-88
2023/03/25 10:43:40;;;;;;;8.68;2.72;;;12.30;99.90;;;;;;4956630;28;20034;-91
2023/03/25 10:46:28;;;;;;;11.02;1.48;;;12.40;99.90;;;;;;4972921;28;20081;-93
2023/03/25 10:48:54;;;;;;;12.13;1.95;;;12.70;99.90;;;;;;4950551;28;20031;-86
2023/03/25 10:51:27;;;;;;;7.55;1.48;;;12.90;99.90;;;;;;4962977;28;20023;-83
2023/03/25 10:53:53;;;;;;;14.52;2.00;;;12.90;99.90;;;;;;4965114;28;20026;-88
2023/03/25 10:56:23;;;;;;;7.25;1.38;;;12.70;99.90;;;;;;4966525;28;20039;-86
2023/03/25 10:58:53;;;;;;;12.73;2.03;;;12.50;99.90;;;;;;4947225;28;20031;-83
2023/03/25 11:01:27;;;;;;;10.40;1.70;;;12.30;99.90;;;;;;4954874;28;20022;-83
2023/03/25 11:03:53;;;;;;;8.20;1.30;;;12.30;99.90;;;;;;4952824;28;20027;-85
2023/03/25 11:06:32;;;;;;;9.68;1.92;;;12.10;99.90;;;;;;4954405;28;20081;-88
2023/03/25 11:09:07;;;;;;;10.73;1.63;;;11.90;99.90;;;;;;4964759;28;20043;-90
2023/03/25 11:11:34;;;;;;;6.75;1.17;;;11.40;99.90;;;;;;4950910;28;20089;-86
2023/03/25 11:14:03;;;;;;;6.13;1.30;;;10.80;99.90;;;;;;4945790;28;20031;-87
2023/03/25 11:16:34;;;;;;;4.72;1.38;;;9.90;99.90;;;;;;4941803;28;20031;-88
2023/03/25 11:19:00;;;;;;;54.53;20.70;;;9.40;99.90;;;;;;4968406;28;20165;-84
2023/03/25 11:21:34;;;;;;;7.20;1.98;;;9.10;99.90;;;;;;4961414;28;20729;-86
2023/03/25 11:24:01;;;;;;;10.85;2.17;;;9.20;99.90;;;;;;4957593;28;20527;-86
2023/03/25 11:26:37;;;;;;;14.32;2.97;;;9.30;99.90;;;;;;4969154;28;21412;-87
2023/03/25 11:29:05;;;;;;;14.25;2.45;;;9.20;99.90;;;;;;4967304;28;20019;-87
2023/03/25 11:31:36;;;;;;;20.08;2.83;;;9.20;99.90;;;;;;4952352;28;20673;-84
2023/03/25 11:34:11;;;;;;;10.57;2.65;;;9.30;99.90;;;;;;4955618;28;20535;-86
2023/03/25 11:36:47;;;;;;;9.27;1.63;;;9.30;99.90;;;;;;4952686;28;20078;-86
2023/03/25 11:39:22;;;;;;;9.38;1.50;;;9.20;99.90;;;;;;4968383;28;20039;-85
2023/03/25 11:41:49;;;;;;;6.00;1.80;;;9.20;99.90;;;;;;4966095;28;20547;-84
2023/03/25 11:44:26;;;;;;;6.72;1.95;;;9.10;99.90;;;;;;4966799;28;20054;-88
2023/03/25 11:46:57;;;;;;;3.95;1.60;;;9.10;99.90;;;;;;4950068;28;20033;-82
2023/03/25 11:49:25;;;;;;;5.30;1.52;;;9.20;99.90;;;;;;4951781;28;20156;-82
2023/03/25 11:51:57;;;;;;;10.40;2.45;;;9.20;99.90;;;;;;4965842;28;20138;-85
2023/03/25 11:54:25;;;;;;;8.75;1.98;;;9.20;99.90;;;;;;4955261;28;20021;-87
2023/03/25 11:56:53;;;;;;;8.15;2.20;;;9.10;99.90;;;;;;4947103;28;20027;-85
2023/03/25 11:59:26;;;;;;;5.05;1.67;;;9.10;99.90;;;;;;4948431;28;20030;-85
2023/03/25 12:02:01;;;;;;;12.32;2.38;;;9.10;99.90;;;;;;4946508;28;20023;-86
2023/03/25 12:04:28;;;;;;;10.18;2.63;;;9.40;99.90;;;;;;4961908;28;20027;-88
2023/03/25 12:06:56;;;;;;;14.50;3.03;;;10.00;99.90;;;;;;4947132;28;20700;-89
2023/03/25 12:09:23;;;;;;;13.70;3.30;;;10.50;99.90;;;;;;4948404;28;20039;-87
2023/03/25 12:12:13;;;;;;;13.27;3.97;;;10.90;99.90;;;;;;4948452;28;20382;-83
2023/03/25 12:14:50;;;;;;;16.58;3.10;;;11.00;99.90;;;;;;4944570;28;20235;-85
2023/03/25 12:17:39;;;;;;;12.82;3.20;;;10.90;99.90;;;;;;4948464;28;20019;-88
2023/03/25 12:20:36;;;;;;;21.02;3.53;;;10.80;99.90;;;;;;4938935;28;20030;-87
2023/03/25 12:23:16;;;;;;;16.27;3.72;;;10.80;99.90;;;;;;4947670;28;20027;-84
2023/03/25 12:26:14;;;;;;;19.83;3.45;;;10.70;99.90;;;;;;4947144;28;20034;-87
2023/03/25 12:28:43;;;;;;;12.55;3.25;;;10.70;99.90;;;;;;4946312;28;20123;-86
2023/03/25 12:31:28;;;;;;;19.25;3.53;;;10.80;99.90;;;;;;4943515;28;20031;-88
2023/03/25 12:34:03;;;;;;;18.05;3.75;;;10.80;99.90;;;;;;4949349;28;20020;-87
2023/03/25 12:36:52;;;;;;;23.35;3.80;;;10.90;99.90;;;;;;4960531;28;20279;-86
2023/03/25 12:39:36;;;;;;;22.67;3.65;;;11.10;99.90;;;;;;4961036;28;20031;-85
2023/03/25 12:42:20;;;;;;;17.83;3.20;;;11.40;99.90;;;;;;4966449;28;20027;-82
2023/03/25 12:45:12;;;;;;;18.50;3.42;;;11.60;99.90;;;;;;4970507;28;20033;-89
2023/03/25 12:47:56;;;;;;;12.45;2.00;;;11.70;99.90;;;;;;4944040;28;20039;-84
2023/03/25 12:50:31;;;;;;;10.20;1.80;;;11.70;99.90;;;;;;4945199;28;20214;-88
2023/03/25 12:53:19;;;;;;;7.50;1.55;;;11.50;99.90;;;;;;4947573;28;20027;-88
2023/03/25 12:55:51;;;;;;;15.30;2.05;;;11.40;99.90;;;;;;4948360;28;20043;-86
2023/03/25 12:58:38;;;;;;;7.20;1.45;;;11.00;99.90;;;;;;4964511;28;20062;-88
2023/03/25 13:01:21;;;;;;;10.15;1.52;;;10.90;99.90;;;;;;4949190;28;20031;-90
2023/03/25 13:03:52;;;;;;;7.68;1.85;;;10.90;99.90;;;;;;4962608;28;20035;-91
2023/03/25 13:06:42;;;;;;;12.70;1.52;;;10.80;99.90;;;;;;4947022;28;20129;-83
2023/03/25 13:09:29;;;;;;;10.98;1.90;;;10.80;99.90;;;;;;4945312;28;20081;-84
2023/03/25 13:12:06;;;;;;;8.50;2.47;;;11.00;99.90;;;;;;4960630;28;20027;-85
2023/03/25 13:14:43;;;;;;;11.75;1.88;;;10.90;99.90;;;;;;4943988;28;20035;-87
2023/03/25 13:17:29;;;;;;;10.20;1.98;;;10.80;99.90;;;;;;4946072;28;20055;-85
2023/03/25 13:20:00;;;;;;;10.00;1.42;;;10.60;99.90;;;;;;4962481;28;21259;-85
2023/03/25 13:22:35;;;;;;;14.75;2.10;;;10.60;99.90;;;;;;4945394;28;20538;-85
2023/03/25 13:25:07;;;;;;;10.85;1.88;;;10.10;99.90;;;;;;4945842;28;20054;-85
2023/03/25 13:27:37;;;;;;;7.40;2.33;;;9.50;99.90;;;;;;4948492;28;20031;-87
2023/03/25 13:30:13;;;;;;;10.40;2.60;;;9.40;99.90;;;;;;4952761;28;20066;-87
2023/03/25 13:32:49;;;;;;;13.02;2.97;;;9.50;99.90;;;;;;4949066;28;20039;-84
2023/03/25 13:35:26;;;;;;;7.97;2.15;;;10.30;99.90;;;;;;4947662;28;20483;-83
2023/03/25 13:38:00;;;;;;;8.43;1.95;;;11.00;99.90;;;;;;4960086;28;20118;-84
2023/03/25 13:40:35;;;;;;;11.82;1.70;;;11.40;99.90;;;;;;4962823;28;20059;-85
2023/03/25 13:43:12;;;;;;;6.22;1.35;;;11.70;99.90;;;;;;4944835;28;20030;-86
2023/03/25 13:45:55;;;;;;;5.78;1.63;;;11.70;99.90;;;;;;4944736;28;20039;-83
2023/03/25 13:48:42;;;;;;;5.20;1.45;;;11.50;99.90;;;;;;4944687;28;20065;-82
2023/03/25 13:51:09;;;;;;;10.70;1.70;;;11.50;99.90;;;;;;4938224;28;20435;-85
2023/03/25 13:53:56;;;;;;;9.57;2.08;;;11.50;99.90;;;;;;4946276;28;20859;-81
2023/03/25 13:56:33;;;;;;;4.10;1.70;;;11.30;99.90;;;;;;4943422;28;20019;-83
2023/03/25 13:59:08;;;;;;;8.90;1.95;;;11.20;99.90;;;;;;4960133;28;20043;-82
2023/03/25 14:01:51;;;;;;;8.63;1.60;;;11.30;99.90;;;;;;4964268;28;20027;-86
2023/03/25 14:04:20;;;;;;;7.25;1.95;;;11.80;99.90;;;;;;4947541;28;20023;-83
2023/03/25 14:07:08;;;;;;;8.98;1.98;;;12.20;99.90;;;;;;4944546;28;20054;-83
2023/03/25 14:10:06;;;;;;;10.75;1.70;;;11.90;99.90;;;;;;4948575;28;20031;-84
2023/03/25 14:12:42;;;;;;;5.88;1.40;;;11.50;99.90;;;;;;4939040;28;20030;-85
2023/03/25 14:15:22;;;;;;;8.02;1.48;;;11.10;99.90;;;;;;4948910;28;20078;-85
2023/03/25 14:17:53;;;;;;;9.38;2.20;;;10.80;99.90;;;;;;4947549;28;20038;-87
2023/03/25 14:20:27;;;;;;;13.55;2.25;;;10.60;99.90;;;;;;4950478;28;20024;-89
2023/03/25 14:23:00;;;;;;;10.13;2.22;;;10.40;99.90;;;;;;4950186;28;20030;-86
2023/03/25 14:25:42;;;;;;;3.55;2.03;;;10.30;99.90;;;;;;4950201;28;20145;-84
2023/03/25 14:28:18;;;;;;;12.25;2.40;;;10.20;99.90;;;;;;4948071;28;20027;-86
2023/03/25 14:31:04;;;;;;;9.18;1.90;;;9.90;99.90;;;;;;4964302;28;20300;-84
2023/03/25 14:33:58;;;;;;;5.82;1.80;;;9.80;99.90;;;;;;4963331;28;20019;-84
2023/03/25 14:36:48;;;;;;;6.70;1.70;;;10.00;99.90;;;;;;4948850;28;20019;-83
2023/03/25 14:39:23;;;;;;;11.93;2.35;;;11.40;99.90;;;;;;4946989;28;20157;-83
2023/03/25 14:42:22;;;;;;;38.38;10.73;;;12.10;99.90;;;;;;4958379;28;20357;-83
2023/03/25 14:44:53;;;;;;;14.10;4.00;;;12.30;99.90;;;;;;4946043;28;20027;-86
2023/03/25 14:47:21;;;;;;;6.50;2.22;;;12.30;99.90;;;;;;4946485;28;20053;-84
2023/03/25 14:50:28;;;;;;;8.90;1.85;;;12.00;99.90;;;;;;4945430;28;20496;-87